Terminal Aerodrome Forecast
Issued by NWS

Home | Current Version | Previous Version | Text Only | Print | Product List | Glossary On
Versions: 1 2 3 4 5 6 7 8 9 10 11 12 13 14 15 16 17 18 19 20 21 22 23 24 25 26 27 28 29 30
000
FTUS45 KBOU 222341
TAFBJC
TAF
KBJC 222341Z 2300/2324 36006KT P6SM VCSH FEW060 BKN090 BKN220
     FM230200 24006KT P6SM SCT080 BKN220
     FM230500 31007KT P6SM FEW100 SCT220
     FM231500 VRB05KT P6SM SCT220
     FM231900 03006KT P6SM FEW120 SCT220=

USA.gov is the U.S. government's official web portal to all federal, state and local government web resources and services.